sensor_id;sensor_type;location;lat;lon;timestamp;pressure;altitude;pressure_sealevel;temperature;humidity
59519;BME280;46994;54.976;73.404;2022-07-22T00:00:58;98684.03;;;20.60;61.00
59519;BME280;46994;54.976;73.404;2022-07-22T00:03:25;98682.66;;;20.63;60.68
59519;BME280;46994;54.976;73.404;2022-07-22T00:05:52;98706.34;;;20.62;60.91
59519;BME280;46994;54.976;73.404;2022-07-22T00:08:18;98713.97;;;20.66;61.12
59519;BME280;46994;54.976;73.404;2022-07-22T00:10:45;98707.97;;;20.69;60.86
59519;BME280;46994;54.976;73.404;2022-07-22T00:13:12;98701.66;;;20.73;60.78
59519;BME280;46994;54.976;73.404;2022-07-22T00:15:38;98715.22;;;20.83;60.76
59519;BME280;46994;54.976;73.404;2022-07-22T00:18:05;98699.28;;;20.67;61.01
59519;BME280;46994;54.976;73.404;2022-07-22T00:20:32;98714.47;;;20.73;61.21
59519;BME280;46994;54.976;73.404;2022-07-22T00:22:59;98718.03;;;20.68;60.96
59519;BME280;46994;54.976;73.404;2022-07-22T00:25:25;98720.47;;;20.75;60.68
59519;BME280;46994;54.976;73.404;2022-07-22T00:27:54;98723.88;;;20.46;61.96
59519;BME280;46994;54.976;73.404;2022-07-22T00:30:22;98706.50;;;20.27;62.28
59519;BME280;46994;54.976;73.404;2022-07-22T00:32:48;98727.06;;;20.58;61.66
59519;BME280;46994;54.976;73.404;2022-07-22T00:35:15;98699.84;;;20.58;61.08
59519;BME280;46994;54.976;73.404;2022-07-22T00:37:42;98697.06;;;20.69;61.07
59519;BME280;46994;54.976;73.404;2022-07-22T00:40:09;98714.41;;;20.83;60.67
59519;BME280;46994;54.976;73.404;2022-07-22T00:42:36;98713.19;;;20.55;61.37
59519;BME280;46994;54.976;73.404;2022-07-22T00:45:04;98718.38;;;20.51;61.57
59519;BME280;46994;54.976;73.404;2022-07-22T00:47:30;98731.69;;;20.58;61.85
59519;BME280;46994;54.976;73.404;2022-07-22T00:49:57;98741.91;;;20.07;63.46
59519;BME280;46994;54.976;73.404;2022-07-22T00:52:24;98735.13;;;19.94;64.13
59519;BME280;46994;54.976;73.404;2022-07-22T00:54:52;98735.38;;;20.08;63.75
59519;BME280;46994;54.976;73.404;2022-07-22T00:57:18;98728.09;;;19.62;64.52
59519;BME280;46994;54.976;73.404;2022-07-22T00:59:45;98734.84;;;19.34;65.71
59519;BME280;46994;54.976;73.404;2022-07-22T01:02:12;98724.25;;;19.23;66.25
59519;BME280;46994;54.976;73.404;2022-07-22T01:04:39;98730.97;;;18.84;67.34
59519;BME280;46994;54.976;73.404;2022-07-22T01:07:06;98751.28;;;18.67;68.59
59519;BME280;46994;54.976;73.404;2022-07-22T01:09:33;98721.81;;;18.33;68.90
59519;BME280;46994;54.976;73.404;2022-07-22T01:12:00;98740.47;;;18.19;69.90
59519;BME280;46994;54.976;73.404;2022-07-22T01:14:27;98741.34;;;18.30;69.94
59519;BME280;46994;54.976;73.404;2022-07-22T01:16:54;98737.97;;;18.65;68.64
59519;BME280;46994;54.976;73.404;2022-07-22T01:19:21;98755.38;;;18.74;68.61
59519;BME280;46994;54.976;73.404;2022-07-22T01:21:48;98737.28;;;18.38;69.85
59519;BME280;46994;54.976;73.404;2022-07-22T01:24:15;98738.75;;;18.60;69.12
59519;BME280;46994;54.976;73.404;2022-07-22T01:26:41;98751.50;;;18.60;69.37
59519;BME280;46994;54.976;73.404;2022-07-22T01:29:08;98750.41;;;18.56;69.55
59519;BME280;46994;54.976;73.404;2022-07-22T01:31:35;98768.25;;;18.47;70.25
59519;BME280;46994;54.976;73.404;2022-07-22T01:34:02;98754.53;;;18.16;70.92
59519;BME280;46994;54.976;73.404;2022-07-22T01:36:33;98765.72;;;18.25;71.45
59519;BME280;46994;54.976;73.404;2022-07-22T01:38:59;98774.53;;;18.00;72.09
59519;BME280;46994;54.976;73.404;2022-07-22T01:41:26;98758.50;;;17.61;73.74
59519;BME280;46994;54.976;73.404;2022-07-22T01:43:53;98771.06;;;17.72;73.75
59519;BME280;46994;54.976;73.404;2022-07-22T01:46:20;98759.06;;;17.68;73.76
59519;BME280;46994;54.976;73.404;2022-07-22T01:48:51;98755.66;;;17.78;73.40
59519;BME280;46994;54.976;73.404;2022-07-22T01:51:19;98762.94;;;17.72;74.09
59519;BME280;46994;54.976;73.404;2022-07-22T01:53:46;98768.75;;;17.59;74.39
59519;BME280;46994;54.976;73.404;2022-07-22T01:56:14;98781.56;;;17.69;74.55
59519;BME280;46994;54.976;73.404;2022-07-22T01:58:48;98793.25;;;17.69;74.62
59519;BME280;46994;54.976;73.404;2022-07-22T02:01:16;98785.00;;;17.86;73.90
59519;BME280;46994;54.976;73.404;2022-07-22T02:03:43;98791.81;;;18.36;72.28
59519;BME280;46994;54.976;73.404;2022-07-22T02:06:10;98807.19;;;18.68;71.28
59519;BME280;46994;54.976;73.404;2022-07-22T02:08:37;98785.13;;;18.49;71.91
59519;BME280;46994;54.976;73.404;2022-07-22T02:11:14;98787.97;;;18.27;72.91
59519;BME280;46994;54.976;73.404;2022-07-22T02:14:01;98795.81;;;18.28;72.99
59519;BME280;46994;54.976;73.404;2022-07-22T02:16:29;98799.19;;;18.41;72.69
59519;BME280;46994;54.976;73.404;2022-07-22T02:18:56;98813.47;;;18.68;72.47
59519;BME280;46994;54.976;73.404;2022-07-22T02:21:23;98807.41;;;18.61;72.73
59519;BME280;46994;54.976;73.404;2022-07-22T02:23:54;98793.06;;;18.66;72.31
59519;BME280;46994;54.976;73.404;2022-07-22T02:26:21;98794.31;;;18.48;72.96
59519;BME280;46994;54.976;73.404;2022-07-22T02:28:47;98816.06;;;18.58;73.37
59519;BME280;46994;54.976;73.404;2022-07-22T02:31:14;98799.00;;;18.62;72.49
59519;BME280;46994;54.976;73.404;2022-07-22T02:33:41;98826.00;;;18.84;72.41
59519;BME280;46994;54.976;73.404;2022-07-22T02:36:09;98838.50;;;18.90;72.16
59519;BME280;46994;54.976;73.404;2022-07-22T02:38:36;98823.00;;;18.86;72.71
59519;BME280;46994;54.976;73.404;2022-07-22T02:41:03;98837.41;;;18.86;72.08
59519;BME280;46994;54.976;73.404;2022-07-22T02:43:32;98814.72;;;19.18;71.55
59519;BME280;46994;54.976;73.404;2022-07-22T02:45:59;98821.59;;;19.61;69.33
59519;BME280;46994;54.976;73.404;2022-07-22T02:48:26;98816.97;;;20.08;67.75
59519;BME280;46994;54.976;73.404;2022-07-22T02:50:55;98845.78;;;20.39;67.68
59519;BME280;46994;54.976;73.404;2022-07-22T02:53:25;98848.25;;;20.10;68.44
59519;BME280;46994;54.976;73.404;2022-07-22T02:55:52;98842.56;;;19.96;69.12
59519;BME280;46994;54.976;73.404;2022-07-22T02:58:19;98837.31;;;19.49;70.14
59519;BME280;46994;54.976;73.404;2022-07-22T03:00:46;98859.00;;;19.24;71.51
59519;BME280;46994;54.976;73.404;2022-07-22T03:03:13;98844.28;;;19.14;71.44
59519;BME280;46994;54.976;73.404;2022-07-22T03:05:41;98864.53;;;19.64;69.69
59519;BME280;46994;54.976;73.404;2022-07-22T03:08:23;98845.75;;;19.53;68.75
59519;BME280;46994;54.976;73.404;2022-07-22T03:10:49;98846.25;;;19.29;68.99
59519;BME280;46994;54.976;73.404;2022-07-22T03:13:17;98877.53;;;19.47;68.62
59519;BME280;46994;54.976;73.404;2022-07-22T03:15:43;98862.53;;;19.34;68.23
59519;BME280;46994;54.976;73.404;2022-07-22T03:18:12;98864.41;;;19.24;68.69
59519;BME280;46994;54.976;73.404;2022-07-22T03:20:40;98875.00;;;19.25;69.14
59519;BME280;46994;54.976;73.404;2022-07-22T03:23:07;98854.88;;;19.11;68.57
59519;BME280;46994;54.976;73.404;2022-07-22T03:25:34;98870.88;;;19.07;69.54
59519;BME280;46994;54.976;73.404;2022-07-22T03:28:01;98891.06;;;19.32;69.28
59519;BME280;46994;54.976;73.404;2022-07-22T03:30:28;98858.19;;;19.23;69.45
59519;BME280;46994;54.976;73.404;2022-07-22T03:32:55;98869.97;;;19.59;68.13
59519;BME280;46994;54.976;73.404;2022-07-22T03:35:22;98865.66;;;19.84;67.06
59519;BME280;46994;54.976;73.404;2022-07-22T03:37:49;98889.31;;;19.93;68.09
59519;BME280;46994;54.976;73.404;2022-07-22T03:40:17;98869.19;;;19.69;66.92
59519;BME280;46994;54.976;73.404;2022-07-22T03:42:45;98892.03;;;19.68;66.73
59519;BME280;46994;54.976;73.404;2022-07-22T03:45:12;98885.47;;;19.59;67.24
59519;BME280;46994;54.976;73.404;2022-07-22T03:47:40;98887.91;;;19.60;67.39
59519;BME280;46994;54.976;73.404;2022-07-22T03:50:08;98882.13;;;19.41;67.46
59519;BME280;46994;54.976;73.404;2022-07-22T03:52:35;98876.66;;;19.26;68.21
59519;BME280;46994;54.976;73.404;2022-07-22T03:55:06;98896.56;;;19.47;67.50
59519;BME280;46994;54.976;73.404;2022-07-22T03:57:33;98881.06;;;19.47;67.36
59519;BME280;46994;54.976;73.404;2022-07-22T04:00:20;98895.25;;;19.60;67.86
59519;BME280;46994;54.976;73.404;2022-07-22T04:02:47;98881.66;;;19.60;67.63
59519;BME280;46994;54.976;73.404;2022-07-22T04:05:20;98882.25;;;19.77;67.66
59519;BME280;46994;54.976;73.404;2022-07-22T04:07:47;98892.56;;;19.85;66.75
59519;BME280;46994;54.976;73.404;2022-07-22T04:10:14;98903.47;;;20.11;66.12
59519;BME280;46994;54.976;73.404;2022-07-22T04:12:44;98908.06;;;20.15;65.71
59519;BME280;46994;54.976;73.404;2022-07-22T04:15:27;98887.13;;;19.95;65.80
59519;BME280;46994;54.976;73.404;2022-07-22T04:17:54;98889.59;;;19.87;65.57
59519;BME280;46994;54.976;73.404;2022-07-22T04:20:21;98908.91;;;19.90;65.83
59519;BME280;46994;54.976;73.404;2022-07-22T04:23:14;98913.25;;;20.01;65.22
59519;BME280;46994;54.976;73.404;2022-07-22T04:25:41;98877.09;;;20.06;64.62
59519;BME280;46994;54.976;73.404;2022-07-22T04:28:08;98883.34;;;20.22;64.88
59519;BME280;46994;54.976;73.404;2022-07-22T04:30:36;98878.97;;;20.31;63.63
59519;BME280;46994;54.976;73.404;2022-07-22T04:33:03;98878.97;;;20.36;63.96
59519;BME280;46994;54.976;73.404;2022-07-22T04:35:30;98900.72;;;20.61;63.28
59519;BME280;46994;54.976;73.404;2022-07-22T04:38:16;98881.94;;;20.70;63.89
59519;BME280;46994;54.976;73.404;2022-07-22T04:40:51;98904.97;;;21.08;63.24
59519;BME280;46994;54.976;73.404;2022-07-22T04:43:18;98907.53;;;21.49;62.47
59519;BME280;46994;54.976;73.404;2022-07-22T04:45:45;98908.31;;;21.55;61.91
59519;BME280;46994;54.976;73.404;2022-07-22T04:48:12;98925.56;;;21.40;60.99
59519;BME280;46994;54.976;73.404;2022-07-22T04:50:39;98931.06;;;21.25;60.40
59519;BME280;46994;54.976;73.404;2022-07-22T04:53:06;98909.53;;;21.28;61.43
59519;BME280;46994;54.976;73.404;2022-07-22T04:55:34;98894.94;;;21.53;60.92
59519;BME280;46994;54.976;73.404;2022-07-22T04:58:01;98910.28;;;21.88;59.10
59519;BME280;46994;54.976;73.404;2022-07-22T05:00:29;98917.13;;;21.86;60.33
59519;BME280;46994;54.976;73.404;2022-07-22T05:02:56;98911.00;;;21.60;60.24
59519;BME280;46994;54.976;73.404;2022-07-22T05:05:23;98933.44;;;21.46;61.22
59519;BME280;46994;54.976;73.404;2022-07-22T05:07:50;98921.78;;;21.20;60.97
59519;BME280;46994;54.976;73.404;2022-07-22T05:10:17;98937.56;;;21.39;60.72
59519;BME280;46994;54.976;73.404;2022-07-22T05:12:44;98914.69;;;21.35;60.80
59519;BME280;46994;54.976;73.404;2022-07-22T05:15:12;98941.16;;;21.79;59.59
59519;BME280;46994;54.976;73.404;2022-07-22T05:17:39;98931.50;;;21.96;58.64
59519;BME280;46994;54.976;73.404;2022-07-22T05:20:14;98903.09;;;22.02;58.60
59519;BME280;46994;54.976;73.404;2022-07-22T05:22:43;98936.44;;;22.33;58.60
59519;BME280;46994;54.976;73.404;2022-07-22T05:25:15;98924.94;;;22.02;58.14
59519;BME280;46994;54.976;73.404;2022-07-22T05:27:54;98927.00;;;21.76;58.37
59519;BME280;46994;54.976;73.404;2022-07-22T05:30:29;98912.78;;;21.85;58.19
59519;BME280;46994;54.976;73.404;2022-07-22T05:32:56;98920.19;;;22.18;57.60
59519;BME280;46994;54.976;73.404;2022-07-22T05:35:46;98929.00;;;22.39;56.81
59519;BME280;46994;54.976;73.404;2022-07-22T05:38:13;98948.81;;;22.55;56.37
59519;BME280;46994;54.976;73.404;2022-07-22T05:40:40;98957.59;;;22.52;56.13
59519;BME280;46994;54.976;73.404;2022-07-22T05:43:07;98947.41;;;22.57;54.73
59519;BME280;46994;54.976;73.404;2022-07-22T05:45:34;98937.81;;;22.60;55.35
59519;BME280;46994;54.976;73.404;2022-07-22T05:48:01;98961.94;;;22.53;56.07
59519;BME280;46994;54.976;73.404;2022-07-22T05:50:29;98937.91;;;22.50;55.82
59519;BME280;46994;54.976;73.404;2022-07-22T05:52:55;98936.34;;;22.73;56.67
59519;BME280;46994;54.976;73.404;2022-07-22T05:55:22;98944.44;;;22.83;55.30
59519;BME280;46994;54.976;73.404;2022-07-22T05:57:49;98959.75;;;22.55;55.90
59519;BME280;46994;54.976;73.404;2022-07-22T06:00:17;98944.56;;;22.04;55.43
59519;BME280;46994;54.976;73.404;2022-07-22T06:02:44;98965.06;;;21.97;55.51
59519;BME280;46994;54.976;73.404;2022-07-22T06:05:18;98962.84;;;21.99;56.12
59519;BME280;46994;54.976;73.404;2022-07-22T06:07:45;98969.91;;;22.10;55.47
59519;BME280;46994;54.976;73.404;2022-07-22T06:10:23;98966.50;;;21.84;54.95
59519;BME280;46994;54.976;73.404;2022-07-22T06:12:51;98967.25;;;21.95;55.05
59519;BME280;46994;54.976;73.404;2022-07-22T06:15:18;98962.53;;;22.11;55.54
59519;BME280;46994;54.976;73.404;2022-07-22T06:17:46;98954.75;;;22.28;53.87
59519;BME280;46994;54.976;73.404;2022-07-22T06:20:13;98975.31;;;22.54;53.86
59519;BME280;46994;54.976;73.404;2022-07-22T06:22:40;98945.69;;;22.38;53.81
59519;BME280;46994;54.976;73.404;2022-07-22T06:25:07;98970.06;;;22.58;54.96
59519;BME280;46994;54.976;73.404;2022-07-22T06:27:35;98977.41;;;22.28;53.89
59519;BME280;46994;54.976;73.404;2022-07-22T06:30:03;98972.56;;;22.20;54.06
59519;BME280;46994;54.976;73.404;2022-07-22T06:32:31;98980.97;;;22.29;53.52
59519;BME280;46994;54.976;73.404;2022-07-22T06:34:58;98973.06;;;22.27;53.89
59519;BME280;46994;54.976;73.404;2022-07-22T06:37:25;98975.19;;;21.91;54.20
59519;BME280;46994;54.976;73.404;2022-07-22T06:39:51;98966.19;;;21.91;53.98
59519;BME280;46994;54.976;73.404;2022-07-22T06:42:23;98961.69;;;22.15;54.77
59519;BME280;46994;54.976;73.404;2022-07-22T06:45:14;98970.09;;;22.24;54.14
59519;BME280;46994;54.976;73.404;2022-07-22T06:48:02;98959.94;;;22.29;53.53
59519;BME280;46994;54.976;73.404;2022-07-22T06:50:30;98952.75;;;22.39;53.62
59519;BME280;46994;54.976;73.404;2022-07-22T06:52:59;98945.44;;;22.34;52.29
59519;BME280;46994;54.976;73.404;2022-07-22T06:55:26;98956.56;;;22.43;52.95
59519;BME280;46994;54.976;73.404;2022-07-22T06:58:20;98957.72;;;22.37;51.54
59519;BME280;46994;54.976;73.404;2022-07-22T07:00:47;98962.97;;;22.62;51.22
59519;BME280;46994;54.976;73.404;2022-07-22T07:03:34;98970.34;;;22.90;51.49
59519;BME280;46994;54.976;73.404;2022-07-22T07:06:07;98949.63;;;23.13;51.20
59519;BME280;46994;54.976;73.404;2022-07-22T07:08:53;98942.75;;;23.16;50.85
59519;BME280;46994;54.976;73.404;2022-07-22T07:11:21;98970.59;;;23.18;50.67
59519;BME280;46994;54.976;73.404;2022-07-22T07:13:48;98963.09;;;23.29;50.07
59519;BME280;46994;54.976;73.404;2022-07-22T07:16:15;98954.78;;;23.58;50.43
59519;BME280;46994;54.976;73.404;2022-07-22T07:18:42;98937.88;;;23.56;49.95
59519;BME280;46994;54.976;73.404;2022-07-22T07:21:09;98959.34;;;23.67;48.24
59519;BME280;46994;54.976;73.404;2022-07-22T07:23:36;98947.59;;;23.67;48.92
59519;BME280;46994;54.976;73.404;2022-07-22T07:26:03;98946.88;;;23.56;48.27
59519;BME280;46994;54.976;73.404;2022-07-22T07:28:31;98954.50;;;23.40;48.37
59519;BME280;46994;54.976;73.404;2022-07-22T07:31:30;98962.44;;;23.37;49.25
59519;BME280;46994;54.976;73.404;2022-07-22T07:33:58;98940.59;;;23.13;49.36
59519;BME280;46994;54.976;73.404;2022-07-22T07:36:25;98969.47;;;23.19;48.43
59519;BME280;46994;54.976;73.404;2022-07-22T07:38:52;98971.00;;;23.06;48.60
59519;BME280;46994;54.976;73.404;2022-07-22T07:41:20;98967.56;;;23.19;47.44
59519;BME280;46994;54.976;73.404;2022-07-22T07:43:50;98964.41;;;23.55;48.13
59519;BME280;46994;54.976;73.404;2022-07-22T07:46:18;98942.06;;;23.91;47.59
59519;BME280;46994;54.976;73.404;2022-07-22T07:48:45;98966.75;;;24.23;46.69
59519;BME280;46994;54.976;73.404;2022-07-22T07:51:14;98944.13;;;23.99;47.77
59519;BME280;46994;54.976;73.404;2022-07-22T07:53:42;98959.97;;;23.83;47.41
59519;BME280;46994;54.976;73.404;2022-07-22T07:56:09;98956.44;;;23.59;46.74
59519;BME280;46994;54.976;73.404;2022-07-22T07:58:36;98976.25;;;23.51;47.67
59519;BME280;46994;54.976;73.404;2022-07-22T08:01:03;98962.34;;;23.23;47.17
59519;BME280;46994;54.976;73.404;2022-07-22T08:03:30;98985.22;;;23.32;47.26
59519;BME280;46994;54.976;73.404;2022-07-22T08:06:00;98992.78;;;23.40;46.57
59519;BME280;46994;54.976;73.404;2022-07-22T08:08:31;98991.13;;;23.15;47.23
59519;BME280;46994;54.976;73.404;2022-07-22T08:11:21;98991.34;;;22.95;47.46
59519;BME280;46994;54.976;73.404;2022-07-22T08:14:07;98966.50;;;22.63;47.82
59519;BME280;46994;54.976;73.404;2022-07-22T08:17:02;98973.31;;;22.65;47.39
59519;BME280;46994;54.976;73.404;2022-07-22T08:19:28;98986.38;;;22.68;45.96
59519;BME280;46994;54.976;73.404;2022-07-22T08:21:56;98965.97;;;22.89;44.75
59519;BME280;46994;54.976;73.404;2022-07-22T08:24:30;98998.50;;;23.39;46.04
59519;BME280;46994;54.976;73.404;2022-07-22T08:27:00;98986.00;;;23.57;44.62
59519;BME280;46994;54.976;73.404;2022-07-22T08:29:28;98975.06;;;23.57;43.63
59519;BME280;46994;54.976;73.404;2022-07-22T08:31:56;98969.44;;;23.72;44.57
59519;BME280;46994;54.976;73.404;2022-07-22T08:34:23;98969.75;;;23.89;43.87
59519;BME280;46994;54.976;73.404;2022-07-22T08:36:51;98999.47;;;24.34;43.61
59519;BME280;46994;54.976;73.404;2022-07-22T08:39:18;98979.53;;;24.47;43.89
59519;BME280;46994;54.976;73.404;2022-07-22T08:41:45;98986.41;;;24.77;43.50
59519;BME280;46994;54.976;73.404;2022-07-22T08:44:13;98989.09;;;24.82;42.20
59519;BME280;46994;54.976;73.404;2022-07-22T08:46:44;99006.38;;;24.64;41.45
59519;BME280;46994;54.976;73.404;2022-07-22T08:49:21;99012.94;;;24.30;41.40
59519;BME280;46994;54.976;73.404;2022-07-22T08:52:12;99007.53;;;24.06;40.96
59519;BME280;46994;54.976;73.404;2022-07-22T08:54:48;99005.81;;;23.91;40.75
59519;BME280;46994;54.976;73.404;2022-07-22T08:57:19;99017.28;;;23.93;40.96
59519;BME280;46994;54.976;73.404;2022-07-22T09:00:11;99013.81;;;24.25;42.96
59519;BME280;46994;54.976;73.404;2022-07-22T09:02:42;99008.69;;;24.56;42.52
59519;BME280;46994;54.976;73.404;2022-07-22T09:05:16;99018.91;;;24.70;42.38
59519;BME280;46994;54.976;73.404;2022-07-22T09:07:45;99012.13;;;24.48;43.14
59519;BME280;46994;54.976;73.404;2022-07-22T09:10:20;99033.50;;;24.46;42.82
59519;BME280;46994;54.976;73.404;2022-07-22T09:13:10;99029.50;;;24.20;42.68
59519;BME280;46994;54.976;73.404;2022-07-22T09:15:53;99030.97;;;23.93;42.57
59519;BME280;46994;54.976;73.404;2022-07-22T09:18:54;99027.31;;;23.60;43.02
59519;BME280;46994;54.976;73.404;2022-07-22T09:21:45;99038.72;;;23.38;44.26
59519;BME280;46994;54.976;73.404;2022-07-22T09:24:31;99052.66;;;23.13;45.01
59519;BME280;46994;54.976;73.404;2022-07-22T09:27:08;99044.38;;;22.94;46.22
59519;BME280;46994;54.976;73.404;2022-07-22T09:30:10;99034.88;;;23.15;45.57
59519;BME280;46994;54.976;73.404;2022-07-22T09:32:44;99033.84;;;23.35;44.04
59519;BME280;46994;54.976;73.404;2022-07-22T09:35:36;99039.78;;;23.66;44.46
59519;BME280;46994;54.976;73.404;2022-07-22T09:38:10;99040.34;;;23.87;44.19
59519;BME280;46994;54.976;73.404;2022-07-22T09:40:45;99029.25;;;23.97;42.96
59519;BME280;46994;54.976;73.404;2022-07-22T09:43:15;99020.53;;;23.95;43.46
59519;BME280;46994;54.976;73.404;2022-07-22T09:45:53;99033.41;;;23.95;42.97
59519;BME280;46994;54.976;73.404;2022-07-22T09:48:43;99033.53;;;23.85;43.17
59519;BME280;46994;54.976;73.404;2022-07-22T09:51:51;99038.38;;;23.69;43.55
59519;BME280;46994;54.976;73.404;2022-07-22T09:54:25;99036.41;;;23.51;44.73
59519;BME280;46994;54.976;73.404;2022-07-22T09:56:56;99043.13;;;23.58;44.49
59519;BME280;46994;54.976;73.404;2022-07-22T09:59:25;99046.16;;;23.62;44.12
59519;BME280;46994;54.976;73.404;2022-07-22T10:02:12;99033.13;;;23.48;43.55
59519;BME280;46994;54.976;73.404;2022-07-22T10:04:41;99054.22;;;23.72;44.12
59519;BME280;46994;54.976;73.404;2022-07-22T10:07:13;99043.72;;;23.55;43.76
59519;BME280;46994;54.976;73.404;2022-07-22T10:09:46;99040.09;;;23.65;44.28
59519;BME280;46994;54.976;73.404;2022-07-22T10:12:13;99047.66;;;23.73;43.03
59519;BME280;46994;54.976;73.404;2022-07-22T10:14:42;99032.09;;;23.68;42.85
59519;BME280;46994;54.976;73.404;2022-07-22T10:17:13;99048.03;;;23.85;42.61
59519;BME280;46994;54.976;73.404;2022-07-22T10:19:42;99050.03;;;23.80;44.08
59519;BME280;46994;54.976;73.404;2022-07-22T10:25:13;99044.06;;;23.96;44.76
59519;BME280;46994;54.976;73.404;2022-07-22T10:27:55;99040.75;;;23.99;44.04
59519;BME280;46994;54.976;73.404;2022-07-22T10:30:37;99057.88;;;23.86;42.59
59519;BME280;46994;54.976;73.404;2022-07-22T10:35:54;99048.59;;;23.58;44.15
59519;BME280;46994;54.976;73.404;2022-07-22T10:38:22;99063.66;;;23.85;44.62
59519;BME280;46994;54.976;73.404;2022-07-22T10:41:00;99044.78;;;23.83;42.31
59519;BME280;46994;54.976;73.404;2022-07-22T10:43:46;99070.31;;;23.97;42.48
59519;BME280;46994;54.976;73.404;2022-07-22T10:46:16;99073.22;;;24.06;41.96
59519;BME280;46994;54.976;73.404;2022-07-22T10:48:46;99069.22;;;24.17;41.53
59519;BME280;46994;54.976;73.404;2022-07-22T10:51:19;99054.66;;;24.22;41.49
59519;BME280;46994;54.976;73.404;2022-07-22T10:53:58;99044.03;;;24.20;41.23
59519;BME280;46994;54.976;73.404;2022-07-22T10:56:30;99057.75;;;24.15;41.93
59519;BME280;46994;54.976;73.404;2022-07-22T10:59:12;99053.50;;;24.09;41.92
59519;BME280;46994;54.976;73.404;2022-07-22T11:01:44;99061.25;;;24.21;41.70
59519;BME280;46994;54.976;73.404;2022-07-22T11:04:25;99071.50;;;24.34;40.92
59519;BME280;46994;54.976;73.404;2022-07-22T11:06:54;99057.09;;;24.23;40.16
59519;BME280;46994;54.976;73.404;2022-07-22T11:09:23;99055.03;;;24.15;40.04
59519;BME280;46994;54.976;73.404;2022-07-22T11:11:56;99066.88;;;24.11;41.58
59519;BME280;46994;54.976;73.404;2022-07-22T11:17:05;99061.06;;;23.93;42.39
59519;BME280;46994;54.976;73.404;2022-07-22T11:19:33;99050.22;;;24.07;41.90
59519;BME280;46994;54.976;73.404;2022-07-22T11:22:03;99078.78;;;24.20;40.46
59519;BME280;46994;54.976;73.404;2022-07-22T11:24:31;99072.56;;;24.14;40.29
59519;BME280;46994;54.976;73.404;2022-07-22T11:26:59;99058.97;;;24.09;42.05
59519;BME280;46994;54.976;73.404;2022-07-22T11:29:27;99084.41;;;24.28;40.30
59519;BME280;46994;54.976;73.404;2022-07-22T11:31:56;99081.34;;;24.35;40.76
59519;BME280;46994;54.976;73.404;2022-07-22T11:34:24;99079.03;;;24.42;39.94
59519;BME280;46994;54.976;73.404;2022-07-22T11:36:51;99082.91;;;24.41;39.57
59519;BME280;46994;54.976;73.404;2022-07-22T11:39:22;99053.91;;;24.16;39.80
59519;BME280;46994;54.976;73.404;2022-07-22T11:41:50;99084.78;;;24.22;40.03
59519;BME280;46994;54.976;73.404;2022-07-22T11:44:19;99076.75;;;24.07;40.41
59519;BME280;46994;54.976;73.404;2022-07-22T11:46:47;99072.88;;;23.89;39.89
59519;BME280;46994;54.976;73.404;2022-07-22T11:49:16;99096.94;;;23.92;39.94
59519;BME280;46994;54.976;73.404;2022-07-22T11:51:43;99099.91;;;23.95;40.13
59519;BME280;46994;54.976;73.404;2022-07-22T11:54:10;99117.00;;;24.06;40.97
59519;BME280;46994;54.976;73.404;2022-07-22T11:56:37;99097.97;;;23.96;41.42
59519;BME280;46994;54.976;73.404;2022-07-22T11:59:05;99113.97;;;24.08;41.63
59519;BME280;46994;54.976;73.404;2022-07-22T12:01:35;99123.81;;;24.09;41.52
59519;BME280;46994;54.976;73.404;2022-07-22T12:04:07;99121.06;;;23.90;41.98
59519;BME280;46994;54.976;73.404;2022-07-22T12:06:37;99092.56;;;23.43;42.72
59519;BME280;46994;54.976;73.404;2022-07-22T12:09:12;99122.63;;;23.43;42.97
59519;BME280;46994;54.976;73.404;2022-07-22T12:11:44;99099.94;;;23.42;42.97
59519;BME280;46994;54.976;73.404;2022-07-22T12:14:16;99096.91;;;23.73;42.67
59519;BME280;46994;54.976;73.404;2022-07-22T12:17:00;99125.72;;;23.89;41.78
59519;BME280;46994;54.976;73.404;2022-07-22T12:19:28;99096.38;;;23.71;41.74
59519;BME280;46994;54.976;73.404;2022-07-22T12:22:00;99110.47;;;23.83;41.33
59519;BME280;46994;54.976;73.404;2022-07-22T12:24:37;99137.88;;;23.78;41.45
59519;BME280;46994;54.976;73.404;2022-07-22T12:27:06;99137.97;;;23.68;41.88
59519;BME280;46994;54.976;73.404;2022-07-22T12:32:15;99116.75;;;23.55;41.32
59519;BME280;46994;54.976;73.404;2022-07-22T12:34:47;99137.53;;;23.56;41.67
59519;BME280;46994;54.976;73.404;2022-07-22T12:37:22;99131.84;;;23.52;41.31
59519;BME280;46994;54.976;73.404;2022-07-22T12:39:57;99122.03;;;23.46;40.81
59519;BME280;46994;54.976;73.404;2022-07-22T12:42:30;99118.72;;;23.49;40.88
59519;BME280;46994;54.976;73.404;2022-07-22T12:47:39;99096.56;;;23.51;40.88
59519;BME280;46994;54.976;73.404;2022-07-22T12:53:22;99128.16;;;23.67;41.49
59519;BME280;46994;54.976;73.404;2022-07-22T12:55:54;99110.81;;;23.77;41.78
59519;BME280;46994;54.976;73.404;2022-07-22T12:58:24;99137.81;;;24.07;41.18
59519;BME280;46994;54.976;73.404;2022-07-22T13:00:55;99115.81;;;23.93;39.68
59519;BME280;46994;54.976;73.404;2022-07-22T13:03:22;99110.34;;;23.93;39.64
59519;BME280;46994;54.976;73.404;2022-07-22T13:05:58;99119.22;;;24.04;39.74
59519;BME280;46994;54.976;73.404;2022-07-22T13:08:26;99129.19;;;24.19;38.46
59519;BME280;46994;54.976;73.404;2022-07-22T13:10:54;99159.16;;;24.53;38.00
59519;BME280;46994;54.976;73.404;2022-07-22T13:13:21;99137.91;;;24.82;37.40
59519;BME280;46994;54.976;73.404;2022-07-22T13:15:49;99128.41;;;25.26;36.72
59519;BME280;46994;54.976;73.404;2022-07-22T13:18:16;99130.16;;;25.68;35.52
59519;BME280;46994;54.976;73.404;2022-07-22T13:20:43;99142.69;;;26.16;35.09
59519;BME280;46994;54.976;73.404;2022-07-22T13:23:10;99139.09;;;26.29;35.14
59519;BME280;46994;54.976;73.404;2022-07-22T13:25:36;99132.78;;;26.42;34.42